sensor_id;sensor_type;location;lat;lon;timestamp;temperature;humidity
53282;DHT22;39167;52.794;6.892;2023-05-07T00:01:02;14.80;99.90
53282;DHT22;39167;52.794;6.892;2023-05-07T00:03:28;14.70;99.90
53282;DHT22;39167;52.794;6.892;2023-05-07T00:05:54;14.80;99.90
53282;DHT22;39167;52.794;6.892;2023-05-07T00:08:20;14.70;99.90
53282;DHT22;39167;52.794;6.892;2023-05-07T00:10:46;14.70;99.90
53282;DHT22;39167;52.794;6.892;2023-05-07T00:13:12;14.70;99.90
53282;DHT22;39167;52.794;6.892;2023-05-07T00:15:38;14.70;99.90
53282;DHT22;39167;52.794;6.892;2023-05-07T00:18:03;14.70;99.90
53282;DHT22;39167;52.794;6.892;2023-05-07T00:20:29;14.60;99.90
53282;DHT22;39167;52.794;6.892;2023-05-07T00:22:55;14.60;99.90
53282;DHT22;39167;52.794;6.892;2023-05-07T00:25:20;14.60;99.90
53282;DHT22;39167;52.794;6.892;2023-05-07T00:27:46;14.50;99.90
53282;DHT22;39167;52.794;6.892;2023-05-07T00:30:12;14.50;99.90
53282;DHT22;39167;52.794;6.892;2023-05-07T00:32:38;14.20;99.90
53282;DHT22;39167;52.794;6.892;2023-05-07T00:35:05;14.50;99.90
53282;DHT22;39167;52.794;6.892;2023-05-07T00:37:31;14.50;99.90
53282;DHT22;39167;52.794;6.892;2023-05-07T00:39:56;14.40;99.90
53282;DHT22;39167;52.794;6.892;2023-05-07T00:42:22;14.40;99.90
53282;DHT22;39167;52.794;6.892;2023-05-07T00:44:49;14.40;99.90
53282;DHT22;39167;52.794;6.892;2023-05-07T00:47:18;14.40;99.90
53282;DHT22;39167;52.794;6.892;2023-05-07T00:49:45;14.30;99.90
53282;DHT22;39167;52.794;6.892;2023-05-07T00:52:13;14.20;99.90
53282;DHT22;39167;52.794;6.892;2023-05-07T00:54:41;14.30;99.90
53282;DHT22;39167;52.794;6.892;2023-05-07T00:57:07;14.20;99.90
53282;DHT22;39167;52.794;6.892;2023-05-07T00:59:34;14.20;99.90
53282;DHT22;39167;52.794;6.892;2023-05-07T01:02:01;14.10;99.90
53282;DHT22;39167;52.794;6.892;2023-05-07T01:04:27;14.10;99.90
53282;DHT22;39167;52.794;6.892;2023-05-07T01:06:54;14.10;99.90
53282;DHT22;39167;52.794;6.892;2023-05-07T01:09:22;14.10;99.90
53282;DHT22;39167;52.794;6.892;2023-05-07T01:11:49;14.10;99.90
53282;DHT22;39167;52.794;6.892;2023-05-07T01:14:16;14.00;99.90
53282;DHT22;39167;52.794;6.892;2023-05-07T01:16:42;14.00;99.90
53282;DHT22;39167;52.794;6.892;2023-05-07T01:19:08;13.90;99.90
53282;DHT22;39167;52.794;6.892;2023-05-07T01:21:37;13.90;99.90
53282;DHT22;39167;52.794;6.892;2023-05-07T01:24:06;13.90;99.90
53282;DHT22;39167;52.794;6.892;2023-05-07T01:26:32;13.80;99.90
53282;DHT22;39167;52.794;6.892;2023-05-07T01:28:58;13.80;99.90
53282;DHT22;39167;52.794;6.892;2023-05-07T01:31:24;13.70;99.90
53282;DHT22;39167;52.794;6.892;2023-05-07T01:33:50;13.70;99.90
53282;DHT22;39167;52.794;6.892;2023-05-07T01:36:20;13.70;99.90
53282;DHT22;39167;52.794;6.892;2023-05-07T01:38:48;13.60;99.90
53282;DHT22;39167;52.794;6.892;2023-05-07T01:41:14;13.60;99.90
53282;DHT22;39167;52.794;6.892;2023-05-07T01:43:41;13.60;99.90
53282;DHT22;39167;52.794;6.892;2023-05-07T01:46:08;13.60;99.90
53282;DHT22;39167;52.794;6.892;2023-05-07T01:48:35;13.60;99.90
53282;DHT22;39167;52.794;6.892;2023-05-07T01:51:02;13.00;99.90
53282;DHT22;39167;52.794;6.892;2023-05-07T01:53:28;13.50;99.90
53282;DHT22;39167;52.794;6.892;2023-05-07T01:55:54;13.50;99.90
53282;DHT22;39167;52.794;6.892;2023-05-07T01:58:19;13.40;99.90
53282;DHT22;39167;52.794;6.892;2023-05-07T02:00:45;13.40;99.90
53282;DHT22;39167;52.794;6.892;2023-05-07T02:03:11;13.40;99.90
53282;DHT22;39167;52.794;6.892;2023-05-07T02:05:47;13.40;99.90
53282;DHT22;39167;52.794;6.892;2023-05-07T02:08:16;13.40;99.90
53282;DHT22;39167;52.794;6.892;2023-05-07T02:10:44;13.30;99.90
53282;DHT22;39167;52.794;6.892;2023-05-07T02:13:10;13.30;99.90
53282;DHT22;39167;52.794;6.892;2023-05-07T02:15:36;13.30;99.90
53282;DHT22;39167;52.794;6.892;2023-05-07T02:18:04;13.30;99.90
53282;DHT22;39167;52.794;6.892;2023-05-07T02:20:30;13.30;99.90
53282;DHT22;39167;52.794;6.892;2023-05-07T02:22:56;13.30;99.90
53282;DHT22;39167;52.794;6.892;2023-05-07T02:25:21;13.30;99.90
53282;DHT22;39167;52.794;6.892;2023-05-07T02:27:47;13.20;99.90
53282;DHT22;39167;52.794;6.892;2023-05-07T02:30:14;13.20;99.90
53282;DHT22;39167;52.794;6.892;2023-05-07T02:32:40;13.20;99.90
53282;DHT22;39167;52.794;6.892;2023-05-07T02:35:06;13.20;99.90
53282;DHT22;39167;52.794;6.892;2023-05-07T02:37:31;12.50;99.90
53282;DHT22;39167;52.794;6.892;2023-05-07T02:39:57;13.10;99.90
53282;DHT22;39167;52.794;6.892;2023-05-07T02:42:23;13.10;99.90
53282;DHT22;39167;52.794;6.892;2023-05-07T02:44:48;13.00;99.90
53282;DHT22;39167;52.794;6.892;2023-05-07T02:47:15;13.00;99.90
53282;DHT22;39167;52.794;6.892;2023-05-07T02:49:41;13.00;99.90
53282;DHT22;39167;52.794;6.892;2023-05-07T02:52:07;13.00;99.90
53282;DHT22;39167;52.794;6.892;2023-05-07T02:54:33;12.90;99.90
53282;DHT22;39167;52.794;6.892;2023-05-07T02:56:59;12.90;99.90
53282;DHT22;39167;52.794;6.892;2023-05-07T02:59:26;12.90;99.90
53282;DHT22;39167;52.794;6.892;2023-05-07T03:01:54;12.80;99.90
53282;DHT22;39167;52.794;6.892;2023-05-07T03:04:20;12.90;99.90
53282;DHT22;39167;52.794;6.892;2023-05-07T03:06:48;12.40;99.90
53282;DHT22;39167;52.794;6.892;2023-05-07T03:09:14;12.90;99.90
53282;DHT22;39167;52.794;6.892;2023-05-07T03:11:40;12.90;99.90
53282;DHT22;39167;52.794;6.892;2023-05-07T03:14:05;12.90;99.90
53282;DHT22;39167;52.794;6.892;2023-05-07T03:16:33;12.80;99.90
53282;DHT22;39167;52.794;6.892;2023-05-07T03:18:59;12.80;99.90
53282;DHT22;39167;52.794;6.892;2023-05-07T03:21:25;12.70;99.90
53282;DHT22;39167;52.794;6.892;2023-05-07T03:23:51;12.70;99.90
53282;DHT22;39167;52.794;6.892;2023-05-07T03:26:20;12.70;99.90
53282;DHT22;39167;52.794;6.892;2023-05-07T03:28:46;12.70;99.90
53282;DHT22;39167;52.794;6.892;2023-05-07T03:31:12;12.60;99.90
53282;DHT22;39167;52.794;6.892;2023-05-07T03:33:55;12.60;99.90
53282;DHT22;39167;52.794;6.892;2023-05-07T03:36:23;12.60;99.90
53282;DHT22;39167;52.794;6.892;2023-05-07T03:38:49;12.60;99.90
53282;DHT22;39167;52.794;6.892;2023-05-07T03:41:15;12.60;99.90
53282;DHT22;39167;52.794;6.892;2023-05-07T03:43:41;12.60;99.90
53282;DHT22;39167;52.794;6.892;2023-05-07T03:46:07;12.60;99.90
53282;DHT22;39167;52.794;6.892;2023-05-07T03:48:33;12.60;99.90
53282;DHT22;39167;52.794;6.892;2023-05-07T03:50:59;12.60;99.90
53282;DHT22;39167;52.794;6.892;2023-05-07T03:53:25;12.60;99.90
53282;DHT22;39167;52.794;6.892;2023-05-07T03:55:51;12.50;99.90
53282;DHT22;39167;52.794;6.892;2023-05-07T03:58:16;12.50;99.90
53282;DHT22;39167;52.794;6.892;2023-05-07T04:00:42;12.50;99.90
53282;DHT22;39167;52.794;6.892;2023-05-07T04:03:08;12.50;99.90
53282;DHT22;39167;52.794;6.892;2023-05-07T04:05:34;12.40;99.90
53282;DHT22;39167;52.794;6.892;2023-05-07T04:08:00;12.50;99.90
53282;DHT22;39167;52.794;6.892;2023-05-07T04:10:26;12.40;99.90
53282;DHT22;39167;52.794;6.892;2023-05-07T04:12:53;12.40;99.90
53282;DHT22;39167;52.794;6.892;2023-05-07T04:15:19;12.40;99.90
53282;DHT22;39167;52.794;6.892;2023-05-07T04:17:45;12.40;99.90
53282;DHT22;39167;52.794;6.892;2023-05-07T04:20:15;12.40;99.90
53282;DHT22;39167;52.794;6.892;2023-05-07T04:22:41;12.40;99.90
53282;DHT22;39167;52.794;6.892;2023-05-07T04:25:08;12.40;99.90
53282;DHT22;39167;52.794;6.892;2023-05-07T04:27:35;11.90;99.90
53282;DHT22;39167;52.794;6.892;2023-05-07T04:30:01;12.40;99.90
53282;DHT22;39167;52.794;6.892;2023-05-07T04:32:28;12.30;99.90
53282;DHT22;39167;52.794;6.892;2023-05-07T04:34:55;12.30;99.90
53282;DHT22;39167;52.794;6.892;2023-05-07T04:37:21;12.70;99.90
53282;DHT22;39167;52.794;6.892;2023-05-07T04:39:47;12.30;99.90
53282;DHT22;39167;52.794;6.892;2023-05-07T04:42:17;12.30;99.90
53282;DHT22;39167;52.794;6.892;2023-05-07T04:44:44;12.20;99.90
53282;DHT22;39167;52.794;6.892;2023-05-07T04:47:10;12.20;99.90
53282;DHT22;39167;52.794;6.892;2023-05-07T04:49:37;12.20;99.90
53282;DHT22;39167;52.794;6.892;2023-05-07T04:52:03;12.20;99.90
53282;DHT22;39167;52.794;6.892;2023-05-07T04:54:29;12.20;99.90
53282;DHT22;39167;52.794;6.892;2023-05-07T04:56:55;12.20;99.90
53282;DHT22;39167;52.794;6.892;2023-05-07T04:59:23;12.20;99.90
53282;DHT22;39167;52.794;6.892;2023-05-07T05:01:49;12.20;99.90
53282;DHT22;39167;52.794;6.892;2023-05-07T05:04:15;12.30;99.90
53282;DHT22;39167;52.794;6.892;2023-05-07T05:06:40;12.20;99.90
53282;DHT22;39167;52.794;6.892;2023-05-07T05:09:06;12.20;99.90
53282;DHT22;39167;52.794;6.892;2023-05-07T05:11:35;12.20;99.90
53282;DHT22;39167;52.794;6.892;2023-05-07T05:14:01;12.20;99.90
53282;DHT22;39167;52.794;6.892;2023-05-07T05:16:27;11.90;99.90
53282;DHT22;39167;52.794;6.892;2023-05-07T05:18:53;12.20;99.90
53282;DHT22;39167;52.794;6.892;2023-05-07T05:21:20;12.20;99.90
53282;DHT22;39167;52.794;6.892;2023-05-07T05:23:46;12.20;99.90
53282;DHT22;39167;52.794;6.892;2023-05-07T05:26:12;12.40;99.90
53282;DHT22;39167;52.794;6.892;2023-05-07T05:28:38;12.20;99.90
53282;DHT22;39167;52.794;6.892;2023-05-07T05:31:06;12.20;99.90
53282;DHT22;39167;52.794;6.892;2023-05-07T05:33:32;12.00;99.90
53282;DHT22;39167;52.794;6.892;2023-05-07T05:35:57;12.20;99.90
53282;DHT22;39167;52.794;6.892;2023-05-07T05:38:23;12.20;99.90
53282;DHT22;39167;52.794;6.892;2023-05-07T05:40:52;12.20;99.90
53282;DHT22;39167;52.794;6.892;2023-05-07T05:43:18;12.20;99.90
53282;DHT22;39167;52.794;6.892;2023-05-07T05:45:44;12.20;99.90
53282;DHT22;39167;52.794;6.892;2023-05-07T05:48:09;12.30;99.90
53282;DHT22;39167;52.794;6.892;2023-05-07T05:50:35;12.30;99.90
53282;DHT22;39167;52.794;6.892;2023-05-07T05:53:02;12.20;99.90
53282;DHT22;39167;52.794;6.892;2023-05-07T05:55:28;12.30;99.90
53282;DHT22;39167;52.794;6.892;2023-05-07T05:57:54;12.20;99.90
53282;DHT22;39167;52.794;6.892;2023-05-07T06:00:20;12.30;99.90
53282;DHT22;39167;52.794;6.892;2023-05-07T06:02:48;12.30;99.90
53282;DHT22;39167;52.794;6.892;2023-05-07T06:05:16;12.30;99.90
53282;DHT22;39167;52.794;6.892;2023-05-07T06:07:42;12.30;99.90
53282;DHT22;39167;52.794;6.892;2023-05-07T06:10:08;12.30;99.90
53282;DHT22;39167;52.794;6.892;2023-05-07T06:12:34;12.40;99.90
53282;DHT22;39167;52.794;6.892;2023-05-07T06:15:09;12.40;99.90
53282;DHT22;39167;52.794;6.892;2023-05-07T06:17:35;12.30;99.90
53282;DHT22;39167;52.794;6.892;2023-05-07T06:20:01;12.40;99.90
53282;DHT22;39167;52.794;6.892;2023-05-07T06:22:26;13.10;99.90
53282;DHT22;39167;52.794;6.892;2023-05-07T06:24:52;12.40;99.90
53282;DHT22;39167;52.794;6.892;2023-05-07T06:27:18;12.20;99.90
53282;DHT22;39167;52.794;6.892;2023-05-07T06:29:44;12.40;99.90
53282;DHT22;39167;52.794;6.892;2023-05-07T06:32:17;12.40;99.90
53282;DHT22;39167;52.794;6.892;2023-05-07T06:34:43;12.40;99.90
53282;DHT22;39167;52.794;6.892;2023-05-07T06:37:09;12.40;99.90
53282;DHT22;39167;52.794;6.892;2023-05-07T06:39:34;12.40;99.90
53282;DHT22;39167;52.794;6.892;2023-05-07T06:42:01;12.40;99.90
53282;DHT22;39167;52.794;6.892;2023-05-07T06:44:27;12.50;99.90
53282;DHT22;39167;52.794;6.892;2023-05-07T06:46:53;12.50;99.90
53282;DHT22;39167;52.794;6.892;2023-05-07T06:49:19;12.50;99.90
53282;DHT22;39167;52.794;6.892;2023-05-07T06:51:44;12.50;99.90
53282;DHT22;39167;52.794;6.892;2023-05-07T06:54:13;12.50;99.90
53282;DHT22;39167;52.794;6.892;2023-05-07T06:56:39;12.50;99.90
53282;DHT22;39167;52.794;6.892;2023-05-07T06:59:06;12.50;99.90
53282;DHT22;39167;52.794;6.892;2023-05-07T07:01:32;12.60;99.90
53282;DHT22;39167;52.794;6.892;2023-05-07T07:03:58;12.60;99.90
53282;DHT22;39167;52.794;6.892;2023-05-07T07:06:23;12.60;99.90
53282;DHT22;39167;52.794;6.892;2023-05-07T07:08:49;12.60;99.90
53282;DHT22;39167;52.794;6.892;2023-05-07T07:11:15;13.00;99.90
53282;DHT22;39167;52.794;6.892;2023-05-07T07:13:41;12.60;99.90
53282;DHT22;39167;52.794;6.892;2023-05-07T07:16:08;12.60;99.90
53282;DHT22;39167;52.794;6.892;2023-05-07T07:18:34;12.60;99.90
53282;DHT22;39167;52.794;6.892;2023-05-07T07:20:59;12.70;99.90
53282;DHT22;39167;52.794;6.892;2023-05-07T07:23:25;12.60;99.90
53282;DHT22;39167;52.794;6.892;2023-05-07T07:26:12;12.60;99.90
53282;DHT22;39167;52.794;6.892;2023-05-07T07:28:43;12.60;99.90
53282;DHT22;39167;52.794;6.892;2023-05-07T07:31:09;12.70;99.90
53282;DHT22;39167;52.794;6.892;2023-05-07T07:33:35;12.70;99.90
53282;DHT22;39167;52.794;6.892;2023-05-07T07:36:00;12.80;99.90
53282;DHT22;39167;52.794;6.892;2023-05-07T07:38:26;12.80;99.90
53282;DHT22;39167;52.794;6.892;2023-05-07T07:40:52;12.90;99.90
53282;DHT22;39167;52.794;6.892;2023-05-07T07:43:18;12.90;99.90
53282;DHT22;39167;52.794;6.892;2023-05-07T07:50:54;13.00;99.90
53282;DHT22;39167;52.794;6.892;2023-05-07T07:53:20;12.50;99.90
53282;DHT22;39167;52.794;6.892;2023-05-07T07:55:46;13.10;99.90
53282;DHT22;39167;52.794;6.892;2023-05-07T07:58:21;13.10;99.90
53282;DHT22;39167;52.794;6.892;2023-05-07T08:00:47;12.60;99.90
53282;DHT22;39167;52.794;6.892;2023-05-07T08:03:13;13.20;99.90
53282;DHT22;39167;52.794;6.892;2023-05-07T08:05:39;13.20;99.90
53282;DHT22;39167;52.794;6.892;2023-05-07T08:08:05;13.10;99.90
53282;DHT22;39167;52.794;6.892;2023-05-07T08:10:34;13.20;99.90
53282;DHT22;39167;52.794;6.892;2023-05-07T08:13:00;13.10;99.90
53282;DHT22;39167;52.794;6.892;2023-05-07T08:15:28;13.20;99.90
53282;DHT22;39167;52.794;6.892;2023-05-07T08:17:58;13.20;99.90
53282;DHT22;39167;52.794;6.892;2023-05-07T08:20:25;13.20;99.90
53282;DHT22;39167;52.794;6.892;2023-05-07T08:22:54;13.20;99.90
53282;DHT22;39167;52.794;6.892;2023-05-07T08:25:20;13.20;99.90
53282;DHT22;39167;52.794;6.892;2023-05-07T08:27:45;13.20;99.90
53282;DHT22;39167;52.794;6.892;2023-05-07T08:30:12;13.30;99.90
53282;DHT22;39167;52.794;6.892;2023-05-07T08:32:38;13.30;99.90
53282;DHT22;39167;52.794;6.892;2023-05-07T08:35:03;13.40;99.90
53282;DHT22;39167;52.794;6.892;2023-05-07T08:37:32;13.40;99.90
53282;DHT22;39167;52.794;6.892;2023-05-07T08:39:58;13.40;99.90
53282;DHT22;39167;52.794;6.892;2023-05-07T08:42:25;13.50;99.90
53282;DHT22;39167;52.794;6.892;2023-05-07T08:44:51;13.50;99.90
53282;DHT22;39167;52.794;6.892;2023-05-07T08:47:19;13.60;99.90
53282;DHT22;39167;52.794;6.892;2023-05-07T08:49:46;13.70;99.90
53282;DHT22;39167;52.794;6.892;2023-05-07T08:52:12;13.70;99.90
53282;DHT22;39167;52.794;6.892;2023-05-07T08:54:38;13.80;99.90
53282;DHT22;39167;52.794;6.892;2023-05-07T08:57:04;13.90;99.90
53282;DHT22;39167;52.794;6.892;2023-05-07T08:59:30;14.00;99.90
53282;DHT22;39167;52.794;6.892;2023-05-07T09:01:56;14.00;99.90
53282;DHT22;39167;52.794;6.892;2023-05-07T09:04:22;14.10;99.90
53282;DHT22;39167;52.794;6.892;2023-05-07T09:06:48;14.20;99.90
53282;DHT22;39167;52.794;6.892;2023-05-07T09:09:17;14.30;99.90
53282;DHT22;39167;52.794;6.892;2023-05-07T09:11:44;14.40;99.90
53282;DHT22;39167;52.794;6.892;2023-05-07T09:14:09;14.50;99.90
53282;DHT22;39167;52.794;6.892;2023-05-07T09:16:35;14.60;99.90
53282;DHT22;39167;52.794;6.892;2023-05-07T09:19:01;14.60;99.90
53282;DHT22;39167;52.794;6.892;2023-05-07T09:21:27;14.70;99.90
53282;DHT22;39167;52.794;6.892;2023-05-07T09:23:54;14.70;99.90
53282;DHT22;39167;52.794;6.892;2023-05-07T09:26:24;14.80;99.90
53282;DHT22;39167;52.794;6.892;2023-05-07T09:28:51;14.80;99.90
53282;DHT22;39167;52.794;6.892;2023-05-07T09:31:17;14.80;99.90
53282;DHT22;39167;52.794;6.892;2023-05-07T09:33:42;14.90;99.90
53282;DHT22;39167;52.794;6.892;2023-05-07T09:36:09;15.00;99.90
53282;DHT22;39167;52.794;6.892;2023-05-07T09:38:36;15.00;99.90
53282;DHT22;39167;52.794;6.892;2023-05-07T09:41:12;15.00;99.90
53282;DHT22;39167;52.794;6.892;2023-05-07T09:43:39;15.10;99.90
53282;DHT22;39167;52.794;6.892;2023-05-07T09:46:13;15.10;99.90
53282;DHT22;39167;52.794;6.892;2023-05-07T09:48:41;15.10;99.90
53282;DHT22;39167;52.794;6.892;2023-05-07T09:53:43;15.20;99.90
53282;DHT22;39167;52.794;6.892;2023-05-07T09:56:12;15.00;99.90
53282;DHT22;39167;52.794;6.892;2023-05-07T09:58:40;15.40;99.90
53282;DHT22;39167;52.794;6.892;2023-05-07T10:01:07;15.50;99.90
53282;DHT22;39167;52.794;6.892;2023-05-07T10:03:33;15.70;99.90
53282;DHT22;39167;52.794;6.892;2023-05-07T10:06:00;15.80;99.90
53282;DHT22;39167;52.794;6.892;2023-05-07T10:08:27;15.90;99.90
53282;DHT22;39167;52.794;6.892;2023-05-07T10:10:54;16.00;99.90
53282;DHT22;39167;52.794;6.892;2023-05-07T10:13:19;16.00;99.90
53282;DHT22;39167;52.794;6.892;2023-05-07T10:15:47;16.10;99.90
53282;DHT22;39167;52.794;6.892;2023-05-07T10:18:13;16.20;99.90
53282;DHT22;39167;52.794;6.892;2023-05-07T10:20:41;16.30;99.90
53282;DHT22;39167;52.794;6.892;2023-05-07T10:23:13;16.40;99.90
53282;DHT22;39167;52.794;6.892;2023-05-07T10:25:40;16.50;99.90
53282;DHT22;39167;52.794;6.892;2023-05-07T10:28:08;16.60;99.90
53282;DHT22;39167;52.794;6.892;2023-05-07T10:33:29;16.80;99.90
53282;DHT22;39167;52.794;6.892;2023-05-07T10:36:01;17.00;99.90
53282;DHT22;39167;52.794;6.892;2023-05-07T10:38:30;17.20;99.90
53282;DHT22;39167;52.794;6.892;2023-05-07T10:40:56;17.20;99.90
53282;DHT22;39167;52.794;6.892;2023-05-07T10:43:22;17.30;99.90
53282;DHT22;39167;52.794;6.892;2023-05-07T10:46:10;17.40;99.90
53282;DHT22;39167;52.794;6.892;2023-05-07T10:51:35;17.50;99.90
53282;DHT22;39167;52.794;6.892;2023-05-07T10:56:42;17.60;99.90
53282;DHT22;39167;52.794;6.892;2023-05-07T11:01:57;17.70;99.90
53282;DHT22;39167;52.794;6.892;2023-05-07T11:04:23;17.80;99.90
53282;DHT22;39167;52.794;6.892;2023-05-07T11:15:10;18.10;99.90
53282;DHT22;39167;52.794;6.892;2023-05-07T11:17:57;18.10;99.90
53282;DHT22;39167;52.794;6.892;2023-05-07T11:20:58;18.10;99.90
53282;DHT22;39167;52.794;6.892;2023-05-07T11:28:28;18.30;99.90
53282;DHT22;39167;52.794;6.892;2023-05-07T11:30:54;18.40;99.90
53282;DHT22;39167;52.794;6.892;2023-05-07T11:33:20;18.40;99.90
53282;DHT22;39167;52.794;6.892;2023-05-07T11:35:46;18.40;99.90
53282;DHT22;39167;52.794;6.892;2023-05-07T11:38:13;18.40;99.90
53282;DHT22;39167;52.794;6.892;2023-05-07T11:40:56;18.40;99.90
53282;DHT22;39167;52.794;6.892;2023-05-07T11:43:22;18.50;99.90
53282;DHT22;39167;52.794;6.892;2023-05-07T11:45:50;18.50;99.90
53282;DHT22;39167;52.794;6.892;2023-05-07T11:48:16;18.60;99.90
53282;DHT22;39167;52.794;6.892;2023-05-07T11:51:01;18.60;99.90
53282;DHT22;39167;52.794;6.892;2023-05-07T11:56:10;18.70;99.90
53282;DHT22;39167;52.794;6.892;2023-05-07T11:58:36;18.80;99.90
53282;DHT22;39167;52.794;6.892;2023-05-07T12:01:02;18.80;99.90
53282;DHT22;39167;52.794;6.892;2023-05-07T12:03:28;18.90;99.90
53282;DHT22;39167;52.794;6.892;2023-05-07T12:05:54;18.90;99.90
53282;DHT22;39167;52.794;6.892;2023-05-07T12:08:21;18.90;99.90
53282;DHT22;39167;52.794;6.892;2023-05-07T12:10:49;19.00;99.90
53282;DHT22;39167;52.794;6.892;2023-05-07T12:15:45;19.10;99.90
53282;DHT22;39167;52.794;6.892;2023-05-07T12:18:12;19.10;99.90
53282;DHT22;39167;52.794;6.892;2023-05-07T12:20:39;19.00;99.90
53282;DHT22;39167;52.794;6.892;2023-05-07T12:23:05;19.00;99.90
53282;DHT22;39167;52.794;6.892;2023-05-07T12:25:38;19.00;99.90
53282;DHT22;39167;52.794;6.892;2023-05-07T12:28:05;19.00;99.90
53282;DHT22;39167;52.794;6.892;2023-05-07T12:30:40;19.10;99.90
53282;DHT22;39167;52.794;6.892;2023-05-07T12:33:07;19.20;99.90
53282;DHT22;39167;52.794;6.892;2023-05-07T12:35:41;19.20;99.90
53282;DHT22;39167;52.794;6.892;2023-05-07T12:38:13;19.20;99.90
53282;DHT22;39167;52.794;6.892;2023-05-07T12:40:50;19.30;99.90
53282;DHT22;39167;52.794;6.892;2023-05-07T12:45:47;19.40;99.90
53282;DHT22;39167;52.794;6.892;2023-05-07T12:48:13;19.40;99.90
53282;DHT22;39167;52.794;6.892;2023-05-07T12:50:39;19.40;99.90
53282;DHT22;39167;52.794;6.892;2023-05-07T12:53:06;19.40;99.90
53282;DHT22;39167;52.794;6.892;2023-05-07T12:55:44;19.50;99.90
53282;DHT22;39167;52.794;6.892;2023-05-07T12:58:21;19.50;99.90
53282;DHT22;39167;52.794;6.892;2023-05-07T13:00:49;19.50;99.90
53282;DHT22;39167;52.794;6.892;2023-05-07T13:03:29;19.50;99.90
53282;DHT22;39167;52.794;6.892;2023-05-07T13:05:58;19.40;99.90
53282;DHT22;39167;52.794;6.892;2023-05-07T13:08:29;19.40;99.90
53282;DHT22;39167;52.794;6.892;2023-05-07T13:10:56;19.30;99.90
53282;DHT22;39167;52.794;6.892;2023-05-07T13:13:22;19.20;99.90
53282;DHT22;39167;52.794;6.892;2023-05-07T13:15:48;19.20;99.90
53282;DHT22;39167;52.794;6.892;2023-05-07T13:18:14;19.10;99.90
53282;DHT22;39167;52.794;6.892;2023-05-07T13:20:40;19.10;99.90
53282;DHT22;39167;52.794;6.892;2023-05-07T13:23:06;19.00;99.90
53282;DHT22;39167;52.794;6.892;2023-05-07T13:25:32;19.00;99.90
53282;DHT22;39167;52.794;6.892;2023-05-07T13:27:57;19.10;99.90
53282;DHT22;39167;52.794;6.892;2023-05-07T13:30:23;19.00;99.90
53282;DHT22;39167;52.794;6.892;2023-05-07T13:32:49;19.00;99.90
53282;DHT22;39167;52.794;6.892;2023-05-07T13:35:16;18.90;99.90
53282;DHT22;39167;52.794;6.892;2023-05-07T13:37:42;18.90;99.90
53282;DHT22;39167;52.794;6.892;2023-05-07T13:40:08;18.90;99.90
53282;DHT22;39167;52.794;6.892;2023-05-07T13:42:33;18.90;99.90
53282;DHT22;39167;52.794;6.892;2023-05-07T13:44:59;18.90;99.90
53282;DHT22;39167;52.794;6.892;2023-05-07T13:47:25;18.80;99.90
53282;DHT22;39167;52.794;6.892;2023-05-07T13:49:51;18.90;99.90
53282;DHT22;39167;52.794;6.892;2023-05-07T13:52:17;18.90;99.90
53282;DHT22;39167;52.794;6.892;2023-05-07T13:54:43;18.90;99.90
53282;DHT22;39167;52.794;6.892;2023-05-07T13:57:08;18.50;99.90
53282;DHT22;39167;52.794;6.892;2023-05-07T13:59:34;18.90;99.90
53282;DHT22;39167;52.794;6.892;2023-05-07T14:02:00;19.00;99.90
53282;DHT22;39167;52.794;6.892;2023-05-07T14:04:26;19.00;99.90
53282;DHT22;39167;52.794;6.892;2023-05-07T14:06:51;19.10;99.90
53282;DHT22;39167;52.794;6.892;2023-05-07T14:09:17;19.00;99.90
53282;DHT22;39167;52.794;6.892;2023-05-07T14:11:43;18.90;99.90
53282;DHT22;39167;52.794;6.892;2023-05-07T14:14:09;19.00;99.90
53282;DHT22;39167;52.794;6.892;2023-05-07T14:16:37;18.90;99.90
53282;DHT22;39167;52.794;6.892;2023-05-07T14:19:03;18.80;99.90
53282;DHT22;39167;52.794;6.892;2023-05-07T14:21:29;18.80;99.90
53282;DHT22;39167;52.794;6.892;2023-05-07T14:23:55;18.80;99.90
53282;DHT22;39167;52.794;6.892;2023-05-07T14:26:22;18.80;99.90
53282;DHT22;39167;52.794;6.892;2023-05-07T14:28:48;18.70;99.90
53282;DHT22;39167;52.794;6.892;2023-05-07T14:31:14;18.70;99.90
53282;DHT22;39167;52.794;6.892;2023-05-07T14:33:42;18.70;99.90
53282;DHT22;39167;52.794;6.892;2023-05-07T14:36:08;18.70;99.90
53282;DHT22;39167;52.794;6.892;2023-05-07T14:38:34;18.60;99.90
53282;DHT22;39167;52.794;6.892;2023-05-07T14:40:59;18.60;99.90
53282;DHT22;39167;52.794;6.892;2023-05-07T14:43:25;18.60;99.90
53282;DHT22;39167;52.794;6.892;2023-05-07T14:45:51;18.60;99.90
53282;DHT22;39167;52.794;6.892;2023-05-07T14:48:17;18.50;99.90
53282;DHT22;39167;52.794;6.892;2023-05-07T14:50:43;18.50;99.90
53282;DHT22;39167;52.794;6.892;2023-05-07T14:53:09;18.50;99.90
53282;DHT22;39167;52.794;6.892;2023-05-07T14:55:35;18.50;99.90
53282;DHT22;39167;52.794;6.892;2023-05-07T14:58:01;18.40;99.90
53282;DHT22;39167;52.794;6.892;2023-05-07T15:00:27;18.40;99.90
53282;DHT22;39167;52.794;6.892;2023-05-07T15:02:54;18.40;99.90
53282;DHT22;39167;52.794;6.892;2023-05-07T15:05:21;18.30;99.90
53282;DHT22;39167;52.794;6.892;2023-05-07T15:07:58;18.30;99.90
53282;DHT22;39167;52.794;6.892;2023-05-07T15:10:30;18.30;99.90
53282;DHT22;39167;52.794;6.892;2023-05-07T15:12:56;18.30;99.90
53282;DHT22;39167;52.794;6.892;2023-05-07T15:15:21;18.30;99.90
53282;DHT22;39167;52.794;6.892;2023-05-07T15:17:47;18.30;99.90
53282;DHT22;39167;52.794;6.892;2023-05-07T15:20:13;18.30;99.90
53282;DHT22;39167;52.794;6.892;2023-05-07T15:22:38;18.30;99.90
53282;DHT22;39167;52.794;6.892;2023-05-07T15:25:04;18.30;99.90
53282;DHT22;39167;52.794;6.892;2023-05-07T15:27:31;18.30;99.90
53282;DHT22;39167;52.794;6.892;2023-05-07T15:29:57;18.30;99.90
53282;DHT22;39167;52.794;6.892;2023-05-07T15:32:22;18.30;99.90
53282;DHT22;39167;52.794;6.892;2023-05-07T15:34:48;18.30;99.90
53282;DHT22;39167;52.794;6.892;2023-05-07T15:37:14;18.30;99.90
53282;DHT22;39167;52.794;6.892;2023-05-07T15:39:40;18.30;99.90
53282;DHT22;39167;52.794;6.892;2023-05-07T15:42:06;18.40;99.90
53282;DHT22;39167;52.794;6.892;2023-05-07T15:44:31;18.40;99.90
53282;DHT22;39167;52.794;6.892;2023-05-07T15:47:00;18.40;99.90
53282;DHT22;39167;52.794;6.892;2023-05-07T15:49:26;18.40;99.90
53282;DHT22;39167;52.794;6.892;2023-05-07T15:51:52;18.40;99.90
53282;DHT22;39167;52.794;6.892;2023-05-07T15:54:20;18.50;99.90
53282;DHT22;39167;52.794;6.892;2023-05-07T15:56:46;18.50;99.90
53282;DHT22;39167;52.794;6.892;2023-05-07T15:59:12;18.50;99.90
53282;DHT22;39167;52.794;6.892;2023-05-07T16:01:39;18.50;99.90
53282;DHT22;39167;52.794;6.892;2023-05-07T16:04:07;18.60;99.90
53282;DHT22;39167;52.794;6.892;2023-05-07T16:06:33;18.60;99.90
53282;DHT22;39167;52.794;6.892;2023-05-07T16:08:58;18.60;99.90